Time;durP1;ratioP1;P1;durP2;ratioP2;P2;SDS_P1;SDS_P2;PMS_P1;PMS_P2;Temp;Humidity;BMP_temperature;BMP_pressure;BME280_temperature;BME280_humidity;BME280_pressure;Samples;Min_cycle;Max_cycle;Signal;HPM_P1;HPM_P2
2023/04/05 00:01:48;;;;;;;13.30;4.88;;;;;;;;;;4998669;28;20112;-64
2023/04/05 00:04:19;;;;;;;10.45;4.93;;;;;;;;;;4981165;28;20065;-64
2023/04/05 00:06:51;;;;;;;9.73;4.50;;;;;;;;;;4999192;28;20403;-64
2023/04/05 00:09:22;;;;;;;10.23;4.43;;;;;;;;;;4998566;28;20052;-65
2023/04/05 00:11:48;;;;;;;9.75;4.47;;;;;;;;;;4997969;28;20049;-63
2023/04/05 00:14:15;;;;;;;12.15;4.50;;;;;;;;;;4999080;28;20117;-64
2023/04/05 00:16:42;;;;;;;8.98;4.35;;;;;;;;;;4999379;28;20038;-64
2023/04/05 00:19:11;;;;;;;11.02;5.60;;;;;;;;;;4999962;28;20117;-64
2023/04/05 00:21:39;;;;;;;13.57;5.97;;;;;;;;;;4998936;28;20117;-64
2023/04/05 00:24:06;;;;;;;9.27;4.78;;;;;;;;;;4998683;28;20475;-64
2023/04/05 00:26:33;;;;;;;10.02;5.28;;;;;;;;;;5000884;28;20045;-64
2023/04/05 00:29:00;;;;;;;8.95;4.28;;;;;;;;;;5000398;28;21976;-66
2023/04/05 00:31:27;;;;;;;8.00;4.78;;;;;;;;;;4997646;28;20923;-64
2023/04/05 00:33:53;;;;;;;9.60;4.70;;;;;;;;;;4998642;28;20042;-65
2023/04/05 00:36:20;;;;;;;9.15;4.32;;;;;;;;;;4996625;28;20037;-65
2023/04/05 00:38:48;;;;;;;9.25;5.22;;;;;;;;;;4999055;28;20613;-64
2023/04/05 00:41:15;;;;;;;11.30;5.38;;;;;;;;;;4997539;28;20092;-65
2023/04/05 00:43:42;;;;;;;9.90;5.22;;;;;;;;;;4997399;28;20053;-65
2023/04/05 00:46:09;;;;;;;9.35;4.95;;;;;;;;;;4999183;28;20406;-65
2023/04/05 00:48:36;;;;;;;8.93;5.28;;;;;;;;;;4998708;28;20034;-63
2023/04/05 00:51:02;;;;;;;9.90;5.43;;;;;;;;;;4998490;28;20121;-65
2023/04/05 00:53:30;;;;;;;10.00;5.20;;;;;;;;;;4997641;28;20034;-64
2023/04/05 00:55:57;;;;;;;8.95;4.40;;;;;;;;;;4998143;28;20109;-61
2023/04/05 00:58:23;;;;;;;12.20;5.88;;;;;;;;;;4998452;28;20068;-64
2023/04/05 01:01:05;;;;;;;10.57;5.35;;;;;;;;;;4998282;28;20049;-64
2023/04/05 01:03:33;;;;;;;12.80;5.78;;;;;;;;;;4997399;28;20092;-64
2023/04/05 01:06:15;;;;;;;10.07;4.70;;;;;;;;;;4996134;28;20048;-64
2023/04/05 01:09:00;;;;;;;8.98;4.65;;;;;;;;;;4997137;28;20483;-65
2023/04/05 01:11:27;;;;;;;12.25;4.80;;;;;;;;;;4997439;28;20129;-62
2023/04/05 01:14:00;;;;;;;8.55;4.60;;;;;;;;;;4983958;28;20046;-63
2023/04/05 01:16:27;;;;;;;9.70;4.90;;;;;;;;;;4976392;28;20708;-64
2023/04/05 01:18:58;;;;;;;13.10;5.10;;;;;;;;;;4979842;28;20066;-65
2023/04/05 01:21:37;;;;;;;13.32;5.03;;;;;;;;;;4978060;28;20157;-65
2023/04/05 01:24:21;;;;;;;9.15;4.65;;;;;;;;;;4977332;28;20069;-65
2023/04/05 01:27:04;;;;;;;18.92;5.78;;;;;;;;;;4976437;28;20038;-63
2023/04/05 01:29:34;;;;;;;9.82;5.32;;;;;;;;;;4978557;28;20050;-66
2023/04/05 01:32:13;;;;;;;15.10;6.20;;;;;;;;;;4978434;28;20433;-64
2023/04/05 01:34:45;;;;;;;10.90;6.30;;;;;;;;;;4976463;28;20388;-64
2023/04/05 01:37:15;;;;;;;16.13;6.50;;;;;;;;;;4978362;28;20057;-64
2023/04/05 01:39:42;;;;;;;11.02;5.93;;;;;;;;;;4977712;28;20507;-64
2023/04/05 01:42:10;;;;;;;10.18;5.60;;;;;;;;;;4977306;28;20053;-64
2023/04/05 01:44:36;;;;;;;12.82;6.28;;;;;;;;;;4977258;28;20054;-65
2023/04/05 01:47:03;;;;;;;13.18;6.05;;;;;;;;;;4978808;28;20125;-64
2023/04/05 01:49:30;;;;;;;15.52;7.28;;;;;;;;;;4978755;28;20035;-64
2023/04/05 01:51:56;;;;;;;13.80;7.07;;;;;;;;;;4978791;28;20077;-64
2023/04/05 01:54:23;;;;;;;11.80;7.13;;;;;;;;;;4977402;28;20062;-64
2023/04/05 01:56:49;;;;;;;24.80;7.13;;;;;;;;;;4978391;28;20066;-69
2023/04/05 01:59:16;;;;;;;14.38;7.57;;;;;;;;;;4989650;28;20475;-66
2023/04/05 02:01:43;;;;;;;12.90;6.57;;;;;;;;;;4977055;28;20042;-66
2023/04/05 02:04:09;;;;;;;13.20;6.82;;;;;;;;;;4978520;28;20057;-64
2023/04/05 02:06:36;;;;;;;12.98;7.13;;;;;;;;;;4977973;28;20038;-64
2023/04/05 02:09:03;;;;;;;12.95;6.95;;;;;;;;;;4977660;28;20451;-63
2023/04/05 02:11:30;;;;;;;13.27;6.38;;;;;;;;;;4978299;28;20045;-63
2023/04/05 02:13:56;;;;;;;14.60;6.18;;;;;;;;;;4976781;28;20052;-65
2023/04/05 02:16:24;;;;;;;52.05;8.95;;;;;;;;;;4977713;28;20037;-63
2023/04/05 02:18:50;;;;;;;17.50;6.85;;;;;;;;;;4979900;28;20050;-64
2023/04/05 02:21:17;;;;;;;14.90;7.18;;;;;;;;;;4978072;28;20113;-64
2023/04/05 02:23:44;;;;;;;18.15;7.53;;;;;;;;;;4976113;28;20574;-60
2023/04/05 02:26:10;;;;;;;18.52;7.95;;;;;;;;;;4977559;28;20085;-63
2023/04/05 02:28:37;;;;;;;12.32;6.65;;;;;;;;;;4975400;28;20134;-64
2023/04/05 02:31:09;;;;;;;10.32;6.03;;;;;;;;;;4976854;28;20789;-63
2023/04/05 02:33:35;;;;;;;11.70;6.18;;;;;;;;;;4976306;28;20046;-63
2023/04/05 02:36:05;;;;;;;15.77;5.97;;;;;;;;;;4976542;28;20045;-62
2023/04/05 02:38:35;;;;;;;12.32;5.30;;;;;;;;;;4975671;28;20577;-63
2023/04/05 02:41:02;;;;;;;12.95;5.35;;;;;;;;;;4975338;28;20077;-62
2023/04/05 02:43:29;;;;;;;13.23;5.82;;;;;;;;;;4990381;28;20069;-61
2023/04/05 02:45:56;;;;;;;11.73;5.25;;;;;;;;;;4977684;28;20081;-63
2023/04/05 02:48:22;;;;;;;9.15;5.35;;;;;;;;;;4977258;28;20048;-64
2023/04/05 02:50:49;;;;;;;13.32;5.45;;;;;;;;;;4977582;28;20034;-63
2023/04/05 02:53:17;;;;;;;10.77;5.10;;;;;;;;;;4974669;28;20045;-65
2023/04/05 02:55:52;;;;;;;11.27;4.60;;;;;;;;;;4974647;28;20062;-65
2023/04/05 02:58:18;;;;;;;13.57;5.43;;;;;;;;;;4979305;28;20952;-62
2023/04/05 03:00:50;;;;;;;11.88;5.78;;;;;;;;;;4983941;28;20109;-65
2023/04/05 03:03:17;;;;;;;12.68;5.15;;;;;;;;;;4979820;28;20558;-65
2023/04/05 03:05:44;;;;;;;13.38;5.25;;;;;;;;;;4971754;28;20034;-65
2023/04/05 03:08:17;;;;;;;16.73;5.80;;;;;;;;;;4980346;28;20046;-66
2023/04/05 03:10:45;;;;;;;14.70;5.38;;;;;;;;;;4979949;28;20046;-65
2023/04/05 03:13:12;;;;;;;17.02;5.78;;;;;;;;;;4973915;28;20042;-66
2023/04/05 03:15:39;;;;;;;12.32;5.85;;;;;;;;;;4993533;28;20099;-63
2023/04/05 03:18:06;;;;;;;9.63;5.00;;;;;;;;;;4977656;28;20046;-66
2023/04/05 03:20:35;;;;;;;12.85;6.45;;;;;;;;;;4975345;28;20050;-62
2023/04/05 03:23:02;;;;;;;12.02;5.45;;;;;;;;;;4976555;28;20078;-65
2023/04/05 03:25:28;;;;;;;8.35;2.53;;;;;;;;;;4977759;28;20910;-63
2023/04/05 03:27:56;;;;;;;12.25;6.00;;;;;;;;;;4981706;28;20561;-65
2023/04/05 03:30:23;;;;;;;11.95;5.97;;;;;;;;;;4982790;28;20606;-65
2023/04/05 03:32:50;;;;;;;15.98;6.35;;;;;;;;;;4979448;28;20042;-67
2023/04/05 03:35:18;;;;;;;12.25;5.85;;;;;;;;;;4972535;28;20097;-64
2023/04/05 03:37:45;;;;;;;11.18;5.82;;;;;;;;;;4995519;28;20035;-64
2023/04/05 03:40:11;;;;;;;13.77;6.75;;;;;;;;;;4981719;28;20086;-64
2023/04/05 03:42:38;;;;;;;11.23;5.80;;;;;;;;;;5014012;28;20052;-64
2023/04/05 03:45:05;;;;;;;14.25;5.75;;;;;;;;;;5012747;28;20049;-64
2023/04/05 03:47:32;;;;;;;20.38;5.80;;;;;;;;;;5011769;28;20140;-65
2023/04/05 03:49:58;;;;;;;15.82;5.78;;;;;;;;;;5012362;28;20038;-65
2023/04/05 03:52:30;;;;;;;19.02;6.30;;;;;;;;;;4997812;28;20040;-65
2023/04/05 03:55:17;;;;;;;15.18;5.45;;;;;;;;;;4994927;28;20141;-65
2023/04/05 03:57:44;;;;;;;11.95;5.72;;;;;;;;;;4994921;28;20046;-65
2023/04/05 04:00:14;;;;;;;14.07;5.88;;;;;;;;;;4995204;28;20120;-66
2023/04/05 04:02:42;;;;;;;13.30;5.72;;;;;;;;;;4994720;28;20490;-64
2023/04/05 04:05:09;;;;;;;11.32;5.43;;;;;;;;;;4994060;28;20064;-65
2023/04/05 04:07:35;;;;;;;21.13;6.22;;;;;;;;;;4993448;28;20462;-64
2023/04/05 04:10:02;;;;;;;12.57;4.75;;;;;;;;;;4991227;28;20040;-63
2023/04/05 04:12:29;;;;;;;11.25;5.13;;;;;;;;;;4993514;28;20042;-65
2023/04/05 04:14:55;;;;;;;15.80;5.90;;;;;;;;;;4990242;28;20485;-65
2023/04/05 04:17:29;;;;;;;15.68;6.03;;;;;;;;;;4993056;28;20259;-66
2023/04/05 04:19:56;;;;;;;13.98;5.82;;;;;;;;;;4989894;28;20042;-65
2023/04/05 04:22:25;;;;;;;15.45;5.63;;;;;;;;;;4980166;28;20045;-66
2023/04/05 04:24:55;;;;;;;13.68;5.15;;;;;;;;;;4981591;28;20060;-66
2023/04/05 04:27:21;;;;;;;15.13;5.65;;;;;;;;;;4981379;28;20046;-64
2023/04/05 04:29:48;;;;;;;12.05;5.00;;;;;;;;;;4980808;28;20104;-64
2023/04/05 04:32:25;;;;;;;14.10;5.13;;;;;;;;;;4980146;28;20038;-64
2023/04/05 04:34:54;;;;;;;10.18;5.70;;;;;;;;;;4978292;28;20724;-65
2023/04/05 04:37:21;;;;;;;13.45;5.93;;;;;;;;;;4978077;28;20062;-65
2023/04/05 04:39:49;;;;;;;10.40;5.32;;;;;;;;;;4979133;28;20038;-65
2023/04/05 04:42:21;;;;;;;11.40;5.45;;;;;;;;;;4978522;28;20046;-64
2023/04/05 04:44:48;;;;;;;14.23;5.65;;;;;;;;;;4975854;28;20050;-65
2023/04/05 04:47:16;;;;;;;12.32;5.90;;;;;;;;;;4978353;28;20045;-66
2023/04/05 04:49:43;;;;;;;11.18;5.40;;;;;;;;;;4978552;28;20116;-69
2023/04/05 04:52:09;;;;;;;11.48;5.55;;;;;;;;;;4978456;28;20038;-69
2023/04/05 04:54:36;;;;;;;14.45;5.93;;;;;;;;;;4981018;28;20049;-65
2023/04/05 04:57:03;;;;;;;13.55;5.53;;;;;;;;;;4977777;28;20046;-66
2023/04/05 04:59:29;;;;;;;13.32;5.78;;;;;;;;;;4978222;28;20142;-65
2023/04/05 05:01:56;;;;;;;11.25;5.97;;;;;;;;;;4984619;28;20077;-66
2023/04/05 05:04:23;;;;;;;11.15;5.57;;;;;;;;;;4975489;28;20042;-67
2023/04/05 05:06:53;;;;;;;11.43;5.97;;;;;;;;;;5014419;28;20075;-66
2023/04/05 05:09:19;;;;;;;14.75;6.25;;;;;;;;;;5013152;28;20103;-66
2023/04/05 05:11:46;;;;;;;13.77;5.78;;;;;;;;;;5014874;28;20073;-65
2023/04/05 05:14:13;;;;;;;11.32;5.13;;;;;;;;;;5013611;28;20040;-64
2023/04/05 05:16:39;;;;;;;18.58;5.38;;;;;;;;;;5008595;28;20048;-62
2023/04/05 05:19:06;;;;;;;9.93;5.45;;;;;;;;;;5015180;28;20045;-66
2023/04/05 05:21:32;;;;;;;11.63;6.00;;;;;;;;;;4991305;28;20053;-65
2023/04/05 05:23:59;;;;;;;13.43;5.72;;;;;;;;;;5013427;28;20052;-65
2023/04/05 05:26:26;;;;;;;13.82;6.10;;;;;;;;;;5014889;28;20129;-66
2023/04/05 05:28:52;;;;;;;12.63;6.05;;;;;;;;;;5014514;28;20049;-66
2023/04/05 05:31:19;;;;;;;10.73;5.28;;;;;;;;;;5013952;28;20049;-66
2023/04/05 05:33:48;;;;;;;11.07;5.30;;;;;;;;;;5013501;28;20691;-66
2023/04/05 05:36:15;;;;;;;11.68;5.38;;;;;;;;;;4998962;28;20065;-66
2023/04/05 05:38:42;;;;;;;16.85;6.22;;;;;;;;;;5012309;28;20029;-63
2023/04/05 05:41:09;;;;;;;13.77;5.80;;;;;;;;;;5015159;28;20037;-65
2023/04/05 05:43:35;;;;;;;14.02;5.95;;;;;;;;;;5004931;28;20058;-64
2023/04/05 05:46:02;;;;;;;15.38;6.53;;;;;;;;;;4979100;28;20043;-66
2023/04/05 05:48:29;;;;;;;12.25;5.53;;;;;;;;;;4988036;28;20046;-65
2023/04/05 05:50:56;;;;;;;13.45;6.68;;;;;;;;;;4979021;28;20538;-66
2023/04/05 05:53:22;;;;;;;15.20;6.68;;;;;;;;;;4978064;28;20764;-66
2023/04/05 05:55:49;;;;;;;15.57;7.35;;;;;;;;;;4979562;28;20042;-65
2023/04/05 05:58:16;;;;;;;14.23;6.25;;;;;;;;;;4977434;28;20035;-63
2023/04/05 06:00:43;;;;;;;15.85;5.72;;;;;;;;;;4978705;28;20061;-64
2023/04/05 06:03:09;;;;;;;14.20;5.65;;;;;;;;;;4971410;28;20056;-64
2023/04/05 06:05:36;;;;;;;11.75;5.93;;;;;;;;;;4986683;28;20053;-65
2023/04/05 06:08:03;;;;;;;14.32;6.00;;;;;;;;;;4983943;28;20042;-65
2023/04/05 06:10:30;;;;;;;14.88;6.85;;;;;;;;;;4978850;28;20069;-63
2023/04/05 06:12:56;;;;;;;14.75;6.13;;;;;;;;;;4980839;28;20229;-65
2023/04/05 06:15:23;;;;;;;11.85;5.35;;;;;;;;;;4978711;28;20118;-66
2023/04/05 06:17:50;;;;;;;12.10;5.50;;;;;;;;;;4972885;28;20104;-66
2023/04/05 06:20:16;;;;;;;11.60;5.97;;;;;;;;;;4980519;28;20070;-63
2023/04/05 06:22:43;;;;;;;16.33;6.95;;;;;;;;;;4978462;28;20047;-64
2023/04/05 06:25:11;;;;;;;17.15;6.40;;;;;;;;;;4981580;28;20061;-65
2023/04/05 06:27:38;;;;;;;10.15;5.75;;;;;;;;;;4992516;28;20150;-66
2023/04/05 06:30:05;;;;;;;15.05;5.30;;;;;;;;;;4979974;28;20569;-65
2023/04/05 06:32:31;;;;;;;13.40;5.68;;;;;;;;;;4976533;28;20571;-66
2023/04/05 06:34:58;;;;;;;8.52;3.67;;;;;;;;;;4977359;28;20042;-66
2023/04/05 06:37:25;;;;;;;11.50;5.50;;;;;;;;;;4986004;28;20502;-65
2023/04/05 06:39:51;;;;;;;13.82;6.30;;;;;;;;;;4975817;28;20073;-65
2023/04/05 06:42:18;;;;;;;14.75;6.82;;;;;;;;;;4968931;28;20402;-66
2023/04/05 06:44:45;;;;;;;14.73;6.20;;;;;;;;;;4974250;28;20057;-66
2023/04/05 06:47:11;;;;;;;11.65;6.55;;;;;;;;;;4987970;28;20031;-66
2023/04/05 06:49:39;;;;;;;10.65;5.93;;;;;;;;;;4977169;28;20043;-66
2023/04/05 06:52:06;;;;;;;13.10;5.80;;;;;;;;;;4977639;28;20042;-68
2023/04/05 06:54:33;;;;;;;14.38;6.03;;;;;;;;;;4975754;28;20045;-64
2023/04/05 06:57:00;;;;;;;12.35;6.78;;;;;;;;;;4975907;28;20042;-66
2023/04/05 06:59:28;;;;;;;15.18;6.20;;;;;;;;;;4975826;28;20121;-66
2023/04/05 07:01:55;;;;;;;16.05;7.15;;;;;;;;;;4967865;28;20547;-67
2023/04/05 07:04:22;;;;;;;12.18;6.70;;;;;;;;;;4975568;28;20448;-65
2023/04/05 07:06:49;;;;;;;12.85;6.13;;;;;;;;;;4978030;28;20051;-65
2023/04/05 07:09:16;;;;;;;10.77;6.22;;;;;;;;;;4968607;28;20038;-65
2023/04/05 07:11:44;;;;;;;12.77;6.90;;;;;;;;;;4968780;28;20063;-64
2023/04/05 07:14:11;;;;;;;13.05;6.45;;;;;;;;;;4975800;28;20601;-66
2023/04/05 07:16:38;;;;;;;15.93;7.10;;;;;;;;;;4969492;28;20057;-65
2023/04/05 07:19:05;;;;;;;14.77;7.10;;;;;;;;;;4976787;28;20034;-66
2023/04/05 07:21:31;;;;;;;13.35;7.00;;;;;;;;;;4986468;28;20487;-65
2023/04/05 07:24:00;;;;;;;16.40;7.25;;;;;;;;;;4976858;28;20057;-65
2023/04/05 07:26:27;;;;;;;15.60;7.50;;;;;;;;;;4974849;28;20057;-64
2023/04/05 07:28:54;;;;;;;16.88;7.30;;;;;;;;;;4978000;28;20041;-65
2023/04/05 07:31:21;;;;;;;13.73;7.50;;;;;;;;;;4986788;28;20037;-63
2023/04/05 07:33:47;;;;;;;18.23;8.35;;;;;;;;;;4987418;28;20141;-64
2023/04/05 07:36:14;;;;;;;13.35;7.38;;;;;;;;;;4988820;28;20110;-65
2023/04/05 07:38:41;;;;;;;12.93;7.20;;;;;;;;;;4988489;28;20041;-64
2023/04/05 07:41:07;;;;;;;17.33;8.20;;;;;;;;;;4989798;28;20045;-66
2023/04/05 07:43:34;;;;;;;13.15;6.53;;;;;;;;;;4987170;28;20089;-65
2023/04/05 07:46:01;;;;;;;13.07;7.53;;;;;;;;;;4988146;28;20037;-65
2023/04/05 07:48:28;;;;;;;18.73;8.80;;;;;;;;;;4987886;28;20462;-64
2023/04/05 07:50:55;;;;;;;15.35;8.05;;;;;;;;;;4989463;28;20462;-66
2023/04/05 07:53:22;;;;;;;18.40;7.68;;;;;;;;;;4987641;28;20038;-65
2023/04/05 07:55:52;;;;;;;17.52;8.13;;;;;;;;;;4988452;28;20085;-65
2023/04/05 07:58:18;;;;;;;14.35;6.97;;;;;;;;;;4987880;28;20053;-66
2023/04/05 08:00:45;;;;;;;22.25;8.85;;;;;;;;;;4990156;28;20113;-67
2023/04/05 08:03:12;;;;;;;18.52;8.63;;;;;;;;;;4989171;28;20562;-65
2023/04/05 08:05:38;;;;;;;19.33;9.15;;;;;;;;;;4988594;28;20026;-66
2023/04/05 08:08:07;;;;;;;16.52;8.70;;;;;;;;;;4985150;28;20042;-66
2023/04/05 08:10:38;;;;;;;21.85;9.57;;;;;;;;;;4968001;28;20053;-67
2023/04/05 08:13:05;;;;;;;21.83;9.18;;;;;;;;;;4976032;28;20422;-66
2023/04/05 08:15:35;;;;;;;18.80;9.77;;;;;;;;;;4976811;28;20066;-66
2023/04/05 08:18:02;;;;;;;16.75;9.27;;;;;;;;;;4991418;28;20045;-66
2023/04/05 08:20:29;;;;;;;17.52;8.80;;;;;;;;;;4978060;28;20043;-66
2023/04/05 08:22:55;;;;;;;22.52;9.13;;;;;;;;;;4976228;28;20046;-65
2023/04/05 08:25:22;;;;;;;18.48;9.60;;;;;;;;;;4978832;28;20054;-65
2023/04/05 08:27:48;;;;;;;19.58;10.63;;;;;;;;;;4979232;28;20121;-66
2023/04/05 08:30:15;;;;;;;18.17;9.45;;;;;;;;;;4980073;28;20410;-65
2023/04/05 08:32:42;;;;;;;16.65;8.85;;;;;;;;;;4977029;28;20043;-65
2023/04/05 08:35:09;;;;;;;18.27;9.90;;;;;;;;;;4979335;28;20034;-67
2023/04/05 08:37:35;;;;;;;19.98;9.75;;;;;;;;;;4978501;28;20778;-65
2023/04/05 08:40:03;;;;;;;21.00;10.00;;;;;;;;;;4978586;28;20885;-66
2023/04/05 08:42:33;;;;;;;21.83;11.60;;;;;;;;;;4977475;28;20049;-65
2023/04/05 08:45:02;;;;;;;25.08;11.27;;;;;;;;;;4979051;28;20042;-65
2023/04/05 08:47:29;;;;;;;21.30;11.02;;;;;;;;;;4974433;28;20038;-67
2023/04/05 08:49:56;;;;;;;23.65;11.30;;;;;;;;;;4981881;28;20038;-65
2023/04/05 08:52:23;;;;;;;26.42;11.15;;;;;;;;;;4993067;28;20077;-66
2023/04/05 08:54:52;;;;;;;22.30;11.48;;;;;;;;;;4974103;28;20031;-65
2023/04/05 08:57:18;;;;;;;24.42;11.70;;;;;;;;;;4977327;28;20035;-67
2023/04/05 08:59:45;;;;;;;22.70;11.02;;;;;;;;;;4977697;28;20077;-65
2023/04/05 09:02:17;;;;;;;26.13;13.18;;;;;;;;;;4978338;28;20038;-66
2023/04/05 09:04:44;;;;;;;29.50;14.55;;;;;;;;;;4977925;28;20419;-66
2023/04/05 09:07:13;;;;;;;27.40;13.48;;;;;;;;;;4979232;28;20050;-65
2023/04/05 09:09:42;;;;;;;25.83;12.65;;;;;;;;;;4978535;28;20043;-65
2023/04/05 09:12:08;;;;;;;30.35;14.02;;;;;;;;;;4979046;28;20049;-65
2023/04/05 09:14:36;;;;;;;29.35;14.52;;;;;;;;;;4977122;28;20046;-64
2023/04/05 09:17:03;;;;;;;31.48;14.68;;;;;;;;;;4978791;28;20431;-65
2023/04/05 09:19:30;;;;;;;30.67;14.85;;;;;;;;;;4978716;28;20030;-65
2023/04/05 09:21:59;;;;;;;29.42;14.60;;;;;;;;;;4979571;28;20121;-65
2023/04/05 09:24:33;;;;;;;36.30;15.73;;;;;;;;;;4978508;28;20043;-67
2023/04/05 09:27:10;;;;;;;30.25;15.32;;;;;;;;;;4979821;28;20073;-66
2023/04/05 09:29:37;;;;;;;30.48;15.40;;;;;;;;;;4992615;28;20034;-68
2023/04/05 09:32:05;;;;;;;32.70;16.08;;;;;;;;;;4972462;28;20291;-66
2023/04/05 09:34:32;;;;;;;33.65;16.13;;;;;;;;;;4977530;28;20448;-66
2023/04/05 09:36:59;;;;;;;35.63;18.42;;;;;;;;;;4979233;28;20768;-67
2023/04/05 09:39:33;;;;;;;41.20;18.80;;;;;;;;;;4977003;28;20046;-67
2023/04/05 09:42:08;;;;;;;35.28;17.30;;;;;;;;;;4979723;28;20635;-66
2023/04/05 09:44:50;;;;;;;40.70;17.30;;;;;;;;;;4978021;28;20078;-67
2023/04/05 09:47:17;;;;;;;32.53;16.15;;;;;;;;;;4978643;28;20069;-66
2023/04/05 09:49:44;;;;;;;29.73;14.95;;;;;;;;;;4978703;28;20122;-66
2023/04/05 09:52:37;;;;;;;27.70;14.70;;;;;;;;;;4978303;28;20660;-67
2023/04/05 09:55:06;;;;;;;31.05;15.25;;;;;;;;;;4979282;28;20042;-65
2023/04/05 09:57:39;;;;;;;29.20;14.82;;;;;;;;;;4977410;28;20026;-66
2023/04/05 10:00:09;;;;;;;27.52;14.90;;;;;;;;;;4978423;28;20050;-64
2023/04/05 10:02:37;;;;;;;35.55;15.75;;;;;;;;;;4975245;28;20034;-64
2023/04/05 10:05:12;;;;;;;38.53;17.75;;;;;;;;;;4977953;28;20058;-67
2023/04/05 10:07:40;;;;;;;33.67;17.33;;;;;;;;;;4976370;28;20789;-65
2023/04/05 10:10:07;;;;;;;37.58;18.67;;;;;;;;;;4977010;28;20027;-66
2023/04/05 10:12:33;;;;;;;39.88;19.50;;;;;;;;;;4974709;28;21306;-64
2023/04/05 10:15:00;;;;;;;35.75;17.05;;;;;;;;;;4978361;28;20048;-64
2023/04/05 10:17:47;;;;;;;28.40;15.60;;;;;;;;;;4975401;28;20386;-65
2023/04/05 10:20:21;;;;;;;33.15;14.95;;;;;;;;;;4977582;28;20042;-64
2023/04/05 10:22:57;;;;;;;29.92;14.68;;;;;;;;;;4976357;28;20101;-65
2023/04/05 10:25:30;;;;;;;33.38;15.07;;;;;;;;;;4977556;28;20532;-67
2023/04/05 10:28:05;;;;;;;26.10;14.20;;;;;;;;;;4971416;28;20038;-65
2023/04/05 10:30:36;;;;;;;28.00;14.77;;;;;;;;;;4976978;28;20066;-64
2023/04/05 10:33:21;;;;;;;29.70;14.48;;;;;;;;;;4991611;28;20045;-65
2023/04/05 10:35:57;;;;;;;28.13;13.90;;;;;;;;;;4976297;28;20531;-65
2023/04/05 10:38:27;;;;;;;30.02;14.68;;;;;;;;;;4975753;28;20531;-66
2023/04/05 10:41:14;;;;;;;31.85;15.23;;;;;;;;;;4976564;28;20082;-63
2023/04/05 10:43:42;;;;;;;33.95;15.23;;;;;;;;;;4974477;28;21514;-64
2023/04/05 10:46:10;;;;;;;31.88;14.88;;;;;;;;;;4969049;28;20711;-65
2023/04/05 10:48:48;;;;;;;27.88;14.88;;;;;;;;;;4976214;28;20450;-65
2023/04/05 10:51:15;;;;;;;28.58;14.35;;;;;;;;;;4977041;28;20046;-65
2023/04/05 10:53:43;;;;;;;27.60;14.50;;;;;;;;;;4976081;28;20413;-64
2023/04/05 10:56:10;;;;;;;29.92;14.00;;;;;;;;;;4970843;28;20046;-65
2023/04/05 10:58:39;;;;;;;27.63;14.73;;;;;;;;;;4974888;28;20053;-65
2023/04/05 11:01:06;;;;;;;37.33;14.95;;;;;;;;;;4987119;28;20037;-65
2023/04/05 11:03:48;;;;;;;30.38;15.40;;;;;;;;;;4968896;28;20046;-64
2023/04/05 11:06:19;;;;;;;35.53;16.15;;;;;;;;;;4976299;28;20070;-65
2023/04/05 11:08:47;;;;;;;28.27;14.15;;;;;;;;;;4975178;28;20045;-65
2023/04/05 11:11:15;;;;;;;34.42;15.23;;;;;;;;;;4977010;28;20045;-66
2023/04/05 11:14:08;;;;;;;28.55;14.45;;;;;;;;;;4973984;28;20054;-66
2023/04/05 11:16:40;;;;;;;27.63;13.55;;;;;;;;;;4974004;28;20038;-68
2023/04/05 11:19:07;;;;;;;27.70;13.73;;;;;;;;;;4975669;28;20739;-66
2023/04/05 11:21:34;;;;;;;28.20;13.82;;;;;;;;;;4968563;28;20474;-66
2023/04/05 11:24:08;;;;;;;28.92;14.05;;;;;;;;;;4966681;28;20190;-67
2023/04/05 11:26:40;;;;;;;28.27;14.07;;;;;;;;;;4990133;28;20045;-68
2023/04/05 11:29:47;;;;;;;33.80;14.30;;;;;;;;;;4986126;28;20208;-66
2023/04/05 11:32:14;;;;;;;28.10;13.50;;;;;;;;;;4982895;28;20041;-65
2023/04/05 11:34:44;;;;;;;30.23;13.80;;;;;;;;;;4985376;28;20046;-65
2023/04/05 11:37:12;;;;;;;30.58;14.05;;;;;;;;;;4986367;28;20140;-64
2023/04/05 11:39:40;;;;;;;27.27;13.93;;;;;;;;;;4981936;28;20463;-65
2023/04/05 11:42:14;;;;;;;32.05;14.75;;;;;;;;;;4984516;28;20043;-64
2023/04/05 11:44:48;;;;;;;31.73;14.60;;;;;;;;;;4985150;28;20054;-68
2023/04/05 11:47:20;;;;;;;27.23;13.80;;;;;;;;;;4985881;28;20046;-64
2023/04/05 11:49:49;;;;;;;31.88;13.88;;;;;;;;;;4975419;28;20081;-67
2023/04/05 11:52:16;;;;;;;29.65;14.95;;;;;;;;;;4986152;28;20171;-67
2023/04/05 11:54:47;;;;;;;32.40;14.75;;;;;;;;;;4988829;28;20117;-67
2023/04/05 11:57:23;;;;;;;37.33;16.05;;;;;;;;;;4991425;28;20077;-66
2023/04/05 11:59:51;;;;;;;35.15;15.50;;;;;;;;;;4989240;28;20209;-64
2023/04/05 12:02:17;;;;;;;31.17;14.68;;;;;;;;;;4980828;28;20038;-64
2023/04/05 12:04:44;;;;;;;30.85;13.73;;;;;;;;;;4981784;28;20046;-66
2023/04/05 12:07:18;;;;;;;29.85;13.68;;;;;;;;;;4982035;28;20053;-64
2023/04/05 12:10:05;;;;;;;32.45;14.45;;;;;;;;;;4979220;28;20066;-65
2023/04/05 12:12:42;;;;;;;26.65;13.38;;;;;;;;;;4973410;28;20852;-64
2023/04/05 12:15:12;;;;;;;31.55;13.63;;;;;;;;;;4981923;28;20066;-64
2023/04/05 12:17:39;;;;;;;27.67;12.88;;;;;;;;;;4980312;28;20046;-66
2023/04/05 12:20:07;;;;;;;30.45;14.02;;;;;;;;;;4979884;28;20383;-66
2023/04/05 12:22:34;;;;;;;30.33;12.32;;;;;;;;;;4979011;28;20038;-65
2023/04/05 12:25:01;;;;;;;28.15;12.07;;;;;;;;;;4979563;28;20046;-65
2023/04/05 12:27:28;;;;;;;22.98;12.05;;;;;;;;;;4979499;28;20038;-64
2023/04/05 12:30:10;;;;;;;36.20;11.90;;;;;;;;;;4970721;28;20448;-63
2023/04/05 12:32:37;;;;;;;30.05;11.90;;;;;;;;;;4974011;28;20634;-64
2023/04/05 12:35:10;;;;;;;27.02;12.05;;;;;;;;;;4979373;28;20257;-65
2023/04/05 12:37:38;;;;;;;32.65;12.52;;;;;;;;;;4979989;28;20419;-65
2023/04/05 12:40:05;;;;;;;24.00;11.18;;;;;;;;;;4994441;28;20851;-67
2023/04/05 12:42:37;;;;;;;30.63;11.88;;;;;;;;;;4971826;28;20687;-66
2023/04/05 12:45:07;;;;;;;25.88;12.40;;;;;;;;;;4980112;28;20073;-66
2023/04/05 12:47:34;;;;;;;29.85;12.15;;;;;;;;;;4978246;28;20042;-65
2023/04/05 12:50:11;;;;;;;26.45;11.23;;;;;;;;;;4969959;28;20967;-64
2023/04/05 12:52:38;;;;;;;27.20;11.77;;;;;;;;;;4978952;28;20792;-66
2023/04/05 12:55:15;;;;;;;28.90;10.23;;;;;;;;;;4977775;28;20359;-63
2023/04/05 12:57:44;;;;;;;31.10;11.15;;;;;;;;;;4977935;28;20042;-66
2023/04/05 13:00:11;;;;;;;31.33;12.38;;;;;;;;;;4977773;28;20034;-69
2023/04/05 13:02:38;;;;;;;36.95;10.98;;;;;;;;;;4977900;28;21657;-61
2023/04/05 13:05:05;;;;;;;35.40;11.32;;;;;;;;;;4978068;28;20092;-64
2023/04/05 13:07:32;;;;;;;36.65;13.10;;;;;;;;;;4977532;28;20495;-65
2023/04/05 13:09:59;;;;;;;31.67;10.85;;;;;;;;;;4970589;28;20122;-65
2023/04/05 13:12:25;;;;;;;45.88;12.50;;;;;;;;;;4977344;28;20134;-66
2023/04/05 13:14:52;;;;;;;34.95;12.77;;;;;;;;;;4980430;28;20047;-64
2023/04/05 13:17:18;;;;;;;33.40;12.63;;;;;;;;;;4977207;28;20042;-67
2023/04/05 13:19:45;;;;;;;33.08;11.15;;;;;;;;;;4995272;28;20034;-65
2023/04/05 13:22:12;;;;;;;27.00;12.10;;;;;;;;;;4979814;28;20478;-66
2023/04/05 13:24:38;;;;;;;31.13;12.15;;;;;;;;;;4974410;28;20122;-66
2023/04/05 13:27:05;;;;;;;23.00;10.90;;;;;;;;;;4993831;28;20136;-64
2023/04/05 13:29:31;;;;;;;31.02;12.25;;;;;;;;;;4977944;28;21661;-66
2023/04/05 13:31:58;;;;;;;32.58;11.93;;;;;;;;;;4975755;28;20103;-65
2023/04/05 13:34:25;;;;;;;28.48;11.40;;;;;;;;;;4968942;28;20084;-64
2023/04/05 13:36:51;;;;;;;29.95;12.20;;;;;;;;;;4979131;28;20046;-65
2023/04/05 13:39:18;;;;;;;33.72;12.70;;;;;;;;;;4977027;28;20130;-67
2023/04/05 13:41:44;;;;;;;36.00;12.23;;;;;;;;;;4978566;28;20121;-65
2023/04/05 13:44:11;;;;;;;35.28;12.32;;;;;;;;;;4981399;28;20053;-66
2023/04/05 13:46:38;;;;;;;37.08;13.63;;;;;;;;;;4979720;28;20034;-62
2023/04/05 13:49:04;;;;;;;46.17;13.02;;;;;;;;;;4992928;28;20045;-64
2023/04/05 13:51:33;;;;;;;31.92;13.82;;;;;;;;;;4977247;28;20049;-63
2023/04/05 13:54:00;;;;;;;41.28;13.90;;;;;;;;;;4979702;28;20964;-63
2023/04/05 13:56:26;;;;;;;35.55;12.82;;;;;;;;;;4977880;28;20082;-65
2023/04/05 13:58:53;;;;;;;46.97;13.13;;;;;;;;;;4979689;28;20502;-64
2023/04/05 14:01:20;;;;;;;39.17;13.07;;;;;;;;;;4979056;28;20097;-66
2023/04/05 14:03:46;;;;;;;35.72;13.73;;;;;;;;;;4979066;28;20077;-64
2023/04/05 14:06:13;;;;;;;38.45;13.55;;;;;;;;;;4997438;28;20038;-65
2023/04/05 14:08:39;;;;;;;31.38;13.98;;;;;;;;;;4981688;28;20038;-63
2023/04/05 14:11:06;;;;;;;37.63;13.82;;;;;;;;;;4981784;28;20717;-64
2023/04/05 14:13:33;;;;;;;37.63;14.32;;;;;;;;;;4980661;28;20062;-63
2023/04/05 14:16:00;;;;;;;43.33;13.70;;;;;;;;;;4980909;28;20089;-63
2023/04/05 14:18:27;;;;;;;39.30;13.32;;;;;;;;;;4971917;28;20038;-63
2023/04/05 14:20:55;;;;;;;48.95;13.93;;;;;;;;;;4980525;28;20123;-64
2023/04/05 14:23:22;;;;;;;38.28;13.00;;;;;;;;;;4978926;28;20038;-64
2023/04/05 14:25:48;;;;;;;28.30;12.55;;;;;;;;;;4979859;28;20034;-63
2023/04/05 14:28:15;;;;;;;37.85;12.50;;;;;;;;;;4978536;28;20151;-64
2023/04/05 14:30:42;;;;;;;34.42;12.90;;;;;;;;;;4977537;28;21349;-63
2023/04/05 14:33:08;;;;;;;37.55;14.00;;;;;;;;;;4979398;28;20038;-63
2023/04/05 14:35:35;;;;;;;33.40;11.48;;;;;;;;;;4978888;28;20399;-63